sensor_id;sensor_type;location;lat;lon;timestamp;temperature;humidity
21039;DHT22;10678;51.002;4.786;2023-12-04T00:00:37;3.80;99.90
21039;DHT22;10678;51.002;4.786;2023-12-04T00:03:02;3.90;99.90
21039;DHT22;10678;51.002;4.786;2023-12-04T00:05:28;3.80;99.90
21039;DHT22;10678;51.002;4.786;2023-12-04T00:07:54;3.70;99.90
21039;DHT22;10678;51.002;4.786;2023-12-04T00:10:20;3.70;99.90
21039;DHT22;10678;51.002;4.786;2023-12-04T00:12:46;3.80;99.90
21039;DHT22;10678;51.002;4.786;2023-12-04T00:15:12;3.80;99.90
21039;DHT22;10678;51.002;4.786;2023-12-04T00:17:37;3.80;99.90
21039;DHT22;10678;51.002;4.786;2023-12-04T00:20:07;3.80;99.90
21039;DHT22;10678;51.002;4.786;2023-12-04T00:22:33;3.70;99.90
21039;DHT22;10678;51.002;4.786;2023-12-04T00:24:59;3.80;99.90
21039;DHT22;10678;51.002;4.786;2023-12-04T00:27:24;3.70;99.90
21039;DHT22;10678;51.002;4.786;2023-12-04T00:29:53;3.80;99.90
21039;DHT22;10678;51.002;4.786;2023-12-04T00:32:18;3.90;99.90
21039;DHT22;10678;51.002;4.786;2023-12-04T00:34:44;3.90;99.90
21039;DHT22;10678;51.002;4.786;2023-12-04T00:37:10;3.80;99.90
21039;DHT22;10678;51.002;4.786;2023-12-04T00:39:35;3.70;99.90
21039;DHT22;10678;51.002;4.786;2023-12-04T00:42:01;3.80;99.90
21039;DHT22;10678;51.002;4.786;2023-12-04T00:44:27;3.70;99.90
21039;DHT22;10678;51.002;4.786;2023-12-04T00:46:52;3.80;99.90
21039;DHT22;10678;51.002;4.786;2023-12-04T00:49:18;3.80;99.90
21039;DHT22;10678;51.002;4.786;2023-12-04T00:51:44;3.70;99.90
21039;DHT22;10678;51.002;4.786;2023-12-04T00:54:10;3.60;99.90
21039;DHT22;10678;51.002;4.786;2023-12-04T00:56:38;3.60;99.90
21039;DHT22;10678;51.002;4.786;2023-12-04T00:59:05;3.60;99.90
21039;DHT22;10678;51.002;4.786;2023-12-04T01:01:32;3.80;99.90
21039;DHT22;10678;51.002;4.786;2023-12-04T01:03:58;3.80;99.90
21039;DHT22;10678;51.002;4.786;2023-12-04T01:06:23;3.80;99.90
21039;DHT22;10678;51.002;4.786;2023-12-04T01:08:50;3.70;99.90
21039;DHT22;10678;51.002;4.786;2023-12-04T01:11:17;3.50;99.90
21039;DHT22;10678;51.002;4.786;2023-12-04T01:13:42;3.50;99.90
21039;DHT22;10678;51.002;4.786;2023-12-04T01:16:08;3.50;99.90
21039;DHT22;10678;51.002;4.786;2023-12-04T01:18:35;3.50;99.90
21039;DHT22;10678;51.002;4.786;2023-12-04T01:21:01;3.40;99.90
21039;DHT22;10678;51.002;4.786;2023-12-04T01:23:27;3.40;99.90
21039;DHT22;10678;51.002;4.786;2023-12-04T01:25:53;3.30;99.90
21039;DHT22;10678;51.002;4.786;2023-12-04T01:28:19;3.30;99.90
21039;DHT22;10678;51.002;4.786;2023-12-04T01:30:44;3.40;99.90
21039;DHT22;10678;51.002;4.786;2023-12-04T01:33:10;3.40;99.90
21039;DHT22;10678;51.002;4.786;2023-12-04T01:35:36;3.50;99.90
21039;DHT22;10678;51.002;4.786;2023-12-04T01:38:01;3.60;99.90
21039;DHT22;10678;51.002;4.786;2023-12-04T01:40:27;3.60;99.90
21039;DHT22;10678;51.002;4.786;2023-12-04T01:42:53;3.80;99.90
21039;DHT22;10678;51.002;4.786;2023-12-04T01:45:19;3.80;99.90
21039;DHT22;10678;51.002;4.786;2023-12-04T01:47:45;3.70;99.90
21039;DHT22;10678;51.002;4.786;2023-12-04T01:50:12;3.70;99.90
21039;DHT22;10678;51.002;4.786;2023-12-04T01:52:39;3.40;99.90
21039;DHT22;10678;51.002;4.786;2023-12-04T01:55:06;3.60;99.90
21039;DHT22;10678;51.002;4.786;2023-12-04T01:57:34;3.60;99.90
21039;DHT22;10678;51.002;4.786;2023-12-04T02:00:00;3.60;99.90
21039;DHT22;10678;51.002;4.786;2023-12-04T02:02:28;3.70;99.90
21039;DHT22;10678;51.002;4.786;2023-12-04T02:04:57;3.70;99.90
21039;DHT22;10678;51.002;4.786;2023-12-04T02:07:25;3.60;99.90
21039;DHT22;10678;51.002;4.786;2023-12-04T02:09:50;3.50;99.90
21039;DHT22;10678;51.002;4.786;2023-12-04T02:12:17;3.40;99.90
21039;DHT22;10678;51.002;4.786;2023-12-04T02:14:43;3.30;99.90
21039;DHT22;10678;51.002;4.786;2023-12-04T02:17:09;3.30;99.90
21039;DHT22;10678;51.002;4.786;2023-12-04T02:19:35;3.30;99.90
21039;DHT22;10678;51.002;4.786;2023-12-04T02:22:01;3.40;99.90
21039;DHT22;10678;51.002;4.786;2023-12-04T02:24:27;3.40;99.90
21039;DHT22;10678;51.002;4.786;2023-12-04T02:26:56;3.50;99.90
21039;DHT22;10678;51.002;4.786;2023-12-04T02:29:29;3.60;99.90
21039;DHT22;10678;51.002;4.786;2023-12-04T02:31:56;3.50;99.90
21039;DHT22;10678;51.002;4.786;2023-12-04T02:34:24;3.40;99.90
21039;DHT22;10678;51.002;4.786;2023-12-04T02:36:51;3.50;99.90
21039;DHT22;10678;51.002;4.786;2023-12-04T02:39:18;3.60;99.90
21039;DHT22;10678;51.002;4.786;2023-12-04T02:41:44;3.60;99.90
21039;DHT22;10678;51.002;4.786;2023-12-04T02:44:09;3.70;99.90
21039;DHT22;10678;51.002;4.786;2023-12-04T02:46:35;3.70;99.90
21039;DHT22;10678;51.002;4.786;2023-12-04T02:49:01;3.90;99.90
21039;DHT22;10678;51.002;4.786;2023-12-04T02:51:26;3.80;99.90
21039;DHT22;10678;51.002;4.786;2023-12-04T02:53:52;3.90;99.90
21039;DHT22;10678;51.002;4.786;2023-12-04T02:56:18;3.90;99.90
21039;DHT22;10678;51.002;4.786;2023-12-04T02:58:44;3.80;99.90
21039;DHT22;10678;51.002;4.786;2023-12-04T03:01:09;3.90;99.90
21039;DHT22;10678;51.002;4.786;2023-12-04T03:03:35;3.80;99.90
21039;DHT22;10678;51.002;4.786;2023-12-04T03:06:00;3.70;99.90
21039;DHT22;10678;51.002;4.786;2023-12-04T03:08:26;3.80;99.90
21039;DHT22;10678;51.002;4.786;2023-12-04T03:10:52;3.70;99.90
21039;DHT22;10678;51.002;4.786;2023-12-04T03:13:17;3.90;99.90
21039;DHT22;10678;51.002;4.786;2023-12-04T03:15:43;4.00;99.90
21039;DHT22;10678;51.002;4.786;2023-12-04T03:18:09;3.90;99.90
21039;DHT22;10678;51.002;4.786;2023-12-04T03:20:34;4.10;99.90
21039;DHT22;10678;51.002;4.786;2023-12-04T03:23:00;4.00;99.90
21039;DHT22;10678;51.002;4.786;2023-12-04T03:25:25;4.10;99.90
21039;DHT22;10678;51.002;4.786;2023-12-04T03:27:51;4.10;99.90
21039;DHT22;10678;51.002;4.786;2023-12-04T03:30:17;3.90;99.90
21039;DHT22;10678;51.002;4.786;2023-12-04T03:32:42;3.90;99.90
21039;DHT22;10678;51.002;4.786;2023-12-04T03:35:08;3.90;99.90
21039;DHT22;10678;51.002;4.786;2023-12-04T03:37:33;3.80;99.90
21039;DHT22;10678;51.002;4.786;2023-12-04T03:39:59;3.90;99.90
21039;DHT22;10678;51.002;4.786;2023-12-04T03:42:25;3.80;99.90
21039;DHT22;10678;51.002;4.786;2023-12-04T03:44:51;3.80;99.90
21039;DHT22;10678;51.002;4.786;2023-12-04T03:47:16;3.70;99.90
21039;DHT22;10678;51.002;4.786;2023-12-04T03:49:42;3.80;99.90
21039;DHT22;10678;51.002;4.786;2023-12-04T03:52:07;3.90;99.90
21039;DHT22;10678;51.002;4.786;2023-12-04T03:54:33;3.90;99.90
21039;DHT22;10678;51.002;4.786;2023-12-04T03:56:59;4.00;99.90
21039;DHT22;10678;51.002;4.786;2023-12-04T03:59:24;4.00;99.90
21039;DHT22;10678;51.002;4.786;2023-12-04T04:01:50;4.20;99.90
21039;DHT22;10678;51.002;4.786;2023-12-04T04:04:16;3.90;99.90
21039;DHT22;10678;51.002;4.786;2023-12-04T04:06:41;3.90;99.90
21039;DHT22;10678;51.002;4.786;2023-12-04T04:09:07;3.90;99.90
21039;DHT22;10678;51.002;4.786;2023-12-04T04:11:32;3.80;99.90
21039;DHT22;10678;51.002;4.786;2023-12-04T04:13:58;3.70;99.90
21039;DHT22;10678;51.002;4.786;2023-12-04T04:16:24;3.70;99.90
21039;DHT22;10678;51.002;4.786;2023-12-04T04:18:49;3.70;99.90
21039;DHT22;10678;51.002;4.786;2023-12-04T04:21:15;3.50;99.90
21039;DHT22;10678;51.002;4.786;2023-12-04T04:23:41;3.60;99.90
21039;DHT22;10678;51.002;4.786;2023-12-04T04:26:06;3.50;99.90
21039;DHT22;10678;51.002;4.786;2023-12-04T04:28:32;3.60;99.90
21039;DHT22;10678;51.002;4.786;2023-12-04T04:30:58;3.60;99.90
21039;DHT22;10678;51.002;4.786;2023-12-04T04:33:24;3.70;99.90
21039;DHT22;10678;51.002;4.786;2023-12-04T04:35:49;3.80;99.90
21039;DHT22;10678;51.002;4.786;2023-12-04T04:38:15;3.60;99.90
21039;DHT22;10678;51.002;4.786;2023-12-04T04:40:40;3.70;99.90
21039;DHT22;10678;51.002;4.786;2023-12-04T04:43:10;3.80;99.90
21039;DHT22;10678;51.002;4.786;2023-12-04T04:45:35;3.50;99.90
21039;DHT22;10678;51.002;4.786;2023-12-04T04:48:01;3.40;99.90
21039;DHT22;10678;51.002;4.786;2023-12-04T04:50:27;3.30;99.90
21039;DHT22;10678;51.002;4.786;2023-12-04T04:52:52;3.50;99.90
21039;DHT22;10678;51.002;4.786;2023-12-04T04:55:18;3.70;99.90
21039;DHT22;10678;51.002;4.786;2023-12-04T04:57:44;3.70;99.90
21039;DHT22;10678;51.002;4.786;2023-12-04T05:00:11;3.90;99.90
21039;DHT22;10678;51.002;4.786;2023-12-04T05:02:36;3.80;99.90
21039;DHT22;10678;51.002;4.786;2023-12-04T05:05:03;3.80;99.90
21039;DHT22;10678;51.002;4.786;2023-12-04T05:07:29;3.80;99.90
21039;DHT22;10678;51.002;4.786;2023-12-04T05:09:55;3.70;99.90
21039;DHT22;10678;51.002;4.786;2023-12-04T05:12:21;3.70;99.90
21039;DHT22;10678;51.002;4.786;2023-12-04T05:14:46;3.80;99.90
21039;DHT22;10678;51.002;4.786;2023-12-04T05:17:12;3.80;99.90
21039;DHT22;10678;51.002;4.786;2023-12-04T05:19:37;3.70;99.90
21039;DHT22;10678;51.002;4.786;2023-12-04T05:22:03;3.70;99.90
21039;DHT22;10678;51.002;4.786;2023-12-04T05:24:29;3.60;99.90
21039;DHT22;10678;51.002;4.786;2023-12-04T05:26:54;3.80;99.90
21039;DHT22;10678;51.002;4.786;2023-12-04T05:29:20;3.80;99.90
21039;DHT22;10678;51.002;4.786;2023-12-04T05:31:46;3.80;99.90
21039;DHT22;10678;51.002;4.786;2023-12-04T05:34:12;3.80;99.90
21039;DHT22;10678;51.002;4.786;2023-12-04T05:36:38;3.90;99.90
21039;DHT22;10678;51.002;4.786;2023-12-04T05:39:04;4.00;99.90
21039;DHT22;10678;51.002;4.786;2023-12-04T05:41:30;4.00;99.90
21039;DHT22;10678;51.002;4.786;2023-12-04T05:43:56;4.10;99.90
21039;DHT22;10678;51.002;4.786;2023-12-04T05:46:22;4.10;99.90
21039;DHT22;10678;51.002;4.786;2023-12-04T05:48:48;4.20;99.90
21039;DHT22;10678;51.002;4.786;2023-12-04T05:51:14;4.30;99.90
21039;DHT22;10678;51.002;4.786;2023-12-04T05:53:41;4.20;99.90
21039;DHT22;10678;51.002;4.786;2023-12-04T05:56:07;4.10;99.90
21039;DHT22;10678;51.002;4.786;2023-12-04T05:58:34;4.20;99.90
21039;DHT22;10678;51.002;4.786;2023-12-04T06:01:00;4.30;99.90
21039;DHT22;10678;51.002;4.786;2023-12-04T06:03:25;4.30;99.90
21039;DHT22;10678;51.002;4.786;2023-12-04T06:05:51;4.10;99.90
21039;DHT22;10678;51.002;4.786;2023-12-04T06:08:17;4.10;99.90
21039;DHT22;10678;51.002;4.786;2023-12-04T06:10:42;4.10;99.90
21039;DHT22;10678;51.002;4.786;2023-12-04T06:13:08;4.20;99.90
21039;DHT22;10678;51.002;4.786;2023-12-04T06:15:34;4.10;99.90
21039;DHT22;10678;51.002;4.786;2023-12-04T06:17:59;4.10;99.90
21039;DHT22;10678;51.002;4.786;2023-12-04T06:20:25;4.00;99.90
21039;DHT22;10678;51.002;4.786;2023-12-04T06:22:51;3.90;99.90
21039;DHT22;10678;51.002;4.786;2023-12-04T06:25:17;4.00;99.90
21039;DHT22;10678;51.002;4.786;2023-12-04T06:27:43;4.10;99.90
21039;DHT22;10678;51.002;4.786;2023-12-04T06:30:10;4.10;99.90
21039;DHT22;10678;51.002;4.786;2023-12-04T06:32:36;4.10;99.90
21039;DHT22;10678;51.002;4.786;2023-12-04T06:35:02;4.00;99.90
21039;DHT22;10678;51.002;4.786;2023-12-04T06:37:29;3.90;99.90
21039;DHT22;10678;51.002;4.786;2023-12-04T06:40:01;4.10;99.90
21039;DHT22;10678;51.002;4.786;2023-12-04T06:42:28;4.10;99.90
21039;DHT22;10678;51.002;4.786;2023-12-04T06:44:54;4.20;99.90
21039;DHT22;10678;51.002;4.786;2023-12-04T06:47:22;4.30;99.90
21039;DHT22;10678;51.002;4.786;2023-12-04T06:49:49;4.40;99.90
21039;DHT22;10678;51.002;4.786;2023-12-04T06:52:14;4.50;99.90
21039;DHT22;10678;51.002;4.786;2023-12-04T06:54:40;4.40;99.90
21039;DHT22;10678;51.002;4.786;2023-12-04T06:57:05;4.40;99.90
21039;DHT22;10678;51.002;4.786;2023-12-04T06:59:31;4.30;99.90
21039;DHT22;10678;51.002;4.786;2023-12-04T07:01:57;4.50;99.90
21039;DHT22;10678;51.002;4.786;2023-12-04T07:04:23;4.70;99.90
21039;DHT22;10678;51.002;4.786;2023-12-04T07:06:49;4.70;99.90
21039;DHT22;10678;51.002;4.786;2023-12-04T07:09:15;4.50;99.90
21039;DHT22;10678;51.002;4.786;2023-12-04T07:11:42;4.70;99.90
21039;DHT22;10678;51.002;4.786;2023-12-04T07:14:08;4.60;99.90
21039;DHT22;10678;51.002;4.786;2023-12-04T07:16:43;4.50;99.90
21039;DHT22;10678;51.002;4.786;2023-12-04T07:19:10;4.60;99.90
21039;DHT22;10678;51.002;4.786;2023-12-04T07:21:36;4.60;99.90
21039;DHT22;10678;51.002;4.786;2023-12-04T07:24:02;4.60;99.90
21039;DHT22;10678;51.002;4.786;2023-12-04T07:26:28;4.50;99.90
21039;DHT22;10678;51.002;4.786;2023-12-04T07:28:54;4.80;99.90
21039;DHT22;10678;51.002;4.786;2023-12-04T07:31:19;4.90;99.90
21039;DHT22;10678;51.002;4.786;2023-12-04T07:33:45;4.90;99.90
21039;DHT22;10678;51.002;4.786;2023-12-04T07:36:11;4.90;99.90
21039;DHT22;10678;51.002;4.786;2023-12-04T07:38:37;4.80;99.90
21039;DHT22;10678;51.002;4.786;2023-12-04T07:41:02;4.70;99.90
21039;DHT22;10678;51.002;4.786;2023-12-04T07:43:28;4.70;99.90
21039;DHT22;10678;51.002;4.786;2023-12-04T07:45:55;4.70;99.90
21039;DHT22;10678;51.002;4.786;2023-12-04T07:48:21;4.70;99.90
21039;DHT22;10678;51.002;4.786;2023-12-04T07:50:47;4.90;99.90
21039;DHT22;10678;51.002;4.786;2023-12-04T07:53:13;4.80;99.90
21039;DHT22;10678;51.002;4.786;2023-12-04T07:55:39;4.90;99.90
21039;DHT22;10678;51.002;4.786;2023-12-04T07:58:05;4.70;99.90
21039;DHT22;10678;51.002;4.786;2023-12-04T08:00:30;4.80;99.90
21039;DHT22;10678;51.002;4.786;2023-12-04T08:02:56;4.90;99.90
21039;DHT22;10678;51.002;4.786;2023-12-04T08:05:21;5.00;99.90
21039;DHT22;10678;51.002;4.786;2023-12-04T08:07:47;4.80;99.90
21039;DHT22;10678;51.002;4.786;2023-12-04T08:10:13;4.70;99.90
21039;DHT22;10678;51.002;4.786;2023-12-04T08:12:39;4.80;99.90
21039;DHT22;10678;51.002;4.786;2023-12-04T08:15:05;4.90;99.90
21039;DHT22;10678;51.002;4.786;2023-12-04T08:17:31;4.90;99.90
21039;DHT22;10678;51.002;4.786;2023-12-04T08:19:57;5.00;99.90
21039;DHT22;10678;51.002;4.786;2023-12-04T08:22:22;5.00;99.90
21039;DHT22;10678;51.002;4.786;2023-12-04T08:24:48;5.00;99.90
21039;DHT22;10678;51.002;4.786;2023-12-04T08:27:14;5.10;99.90
21039;DHT22;10678;51.002;4.786;2023-12-04T08:29:39;5.10;99.90
21039;DHT22;10678;51.002;4.786;2023-12-04T08:32:06;5.10;99.90
21039;DHT22;10678;51.002;4.786;2023-12-04T08:34:31;5.10;99.90
21039;DHT22;10678;51.002;4.786;2023-12-04T08:36:57;5.20;99.90
21039;DHT22;10678;51.002;4.786;2023-12-04T08:39:23;5.20;99.90
21039;DHT22;10678;51.002;4.786;2023-12-04T08:41:48;5.10;99.90
21039;DHT22;10678;51.002;4.786;2023-12-04T08:44:14;5.20;99.90
21039;DHT22;10678;51.002;4.786;2023-12-04T08:46:41;5.20;99.90
21039;DHT22;10678;51.002;4.786;2023-12-04T08:49:07;5.10;99.90
21039;DHT22;10678;51.002;4.786;2023-12-04T08:51:32;5.00;99.90
21039;DHT22;10678;51.002;4.786;2023-12-04T08:53:58;5.20;99.90
21039;DHT22;10678;51.002;4.786;2023-12-04T08:56:24;5.20;99.90
21039;DHT22;10678;51.002;4.786;2023-12-04T08:58:49;5.20;99.90
21039;DHT22;10678;51.002;4.786;2023-12-04T09:01:16;5.40;99.90
21039;DHT22;10678;51.002;4.786;2023-12-04T09:03:41;5.50;99.90
21039;DHT22;10678;51.002;4.786;2023-12-04T09:06:07;5.30;99.90
21039;DHT22;10678;51.002;4.786;2023-12-04T09:08:34;5.50;99.90
21039;DHT22;10678;51.002;4.786;2023-12-04T09:10:59;5.40;99.90
21039;DHT22;10678;51.002;4.786;2023-12-04T09:13:25;5.50;99.90
21039;DHT22;10678;51.002;4.786;2023-12-04T09:15:51;5.50;99.90
21039;DHT22;10678;51.002;4.786;2023-12-04T09:18:17;5.70;99.90
21039;DHT22;10678;51.002;4.786;2023-12-04T09:20:43;5.80;99.90
21039;DHT22;10678;51.002;4.786;2023-12-04T09:23:09;5.70;99.90
21039;DHT22;10678;51.002;4.786;2023-12-04T09:25:35;5.70;99.90
21039;DHT22;10678;51.002;4.786;2023-12-04T09:28:04;5.60;99.90
21039;DHT22;10678;51.002;4.786;2023-12-04T09:30:29;5.40;99.90
21039;DHT22;10678;51.002;4.786;2023-12-04T09:32:55;5.30;99.90
21039;DHT22;10678;51.002;4.786;2023-12-04T09:35:21;5.30;99.90
21039;DHT22;10678;51.002;4.786;2023-12-04T09:37:47;5.50;99.90
21039;DHT22;10678;51.002;4.786;2023-12-04T09:40:16;5.40;99.90
21039;DHT22;10678;51.002;4.786;2023-12-04T09:42:42;5.20;99.90
21039;DHT22;10678;51.002;4.786;2023-12-04T09:45:08;5.30;99.90
21039;DHT22;10678;51.002;4.786;2023-12-04T09:47:34;5.40;99.90
21039;DHT22;10678;51.002;4.786;2023-12-04T09:50:01;5.30;99.90
21039;DHT22;10678;51.002;4.786;2023-12-04T09:52:27;5.40;99.90
21039;DHT22;10678;51.002;4.786;2023-12-04T09:54:53;5.40;99.90
21039;DHT22;10678;51.002;4.786;2023-12-04T09:57:19;5.50;99.90
21039;DHT22;10678;51.002;4.786;2023-12-04T09:59:45;5.40;99.90
21039;DHT22;10678;51.002;4.786;2023-12-04T10:02:11;5.40;99.90
21039;DHT22;10678;51.002;4.786;2023-12-04T10:04:37;5.30;99.90
21039;DHT22;10678;51.002;4.786;2023-12-04T10:07:03;5.20;99.90
21039;DHT22;10678;51.002;4.786;2023-12-04T10:09:29;5.10;99.90
21039;DHT22;10678;51.002;4.786;2023-12-04T10:11:58;4.80;99.90
21039;DHT22;10678;51.002;4.786;2023-12-04T10:14:24;4.90;99.90
21039;DHT22;10678;51.002;4.786;2023-12-04T10:16:51;4.90;99.90
21039;DHT22;10678;51.002;4.786;2023-12-04T10:21:58;5.10;99.90
21039;DHT22;10678;51.002;4.786;2023-12-04T10:24:31;5.20;99.90
21039;DHT22;10678;51.002;4.786;2023-12-04T10:26:58;5.10;99.90
21039;DHT22;10678;51.002;4.786;2023-12-04T10:29:24;5.10;99.90
21039;DHT22;10678;51.002;4.786;2023-12-04T10:31:51;5.30;99.90
21039;DHT22;10678;51.002;4.786;2023-12-04T10:34:20;5.40;99.90
21039;DHT22;10678;51.002;4.786;2023-12-04T10:36:46;5.50;99.90
21039;DHT22;10678;51.002;4.786;2023-12-04T10:39:12;5.30;99.90
21039;DHT22;10678;51.002;4.786;2023-12-04T10:41:43;5.50;99.90
21039;DHT22;10678;51.002;4.786;2023-12-04T10:44:08;5.60;99.90
21039;DHT22;10678;51.002;4.786;2023-12-04T10:46:36;5.60;99.90
21039;DHT22;10678;51.002;4.786;2023-12-04T10:49:04;5.50;99.90
21039;DHT22;10678;51.002;4.786;2023-12-04T10:51:30;5.50;99.90
21039;DHT22;10678;51.002;4.786;2023-12-04T10:53:56;5.60;99.90
21039;DHT22;10678;51.002;4.786;2023-12-04T10:56:35;5.70;99.90
21039;DHT22;10678;51.002;4.786;2023-12-04T10:59:11;6.00;99.90
21039;DHT22;10678;51.002;4.786;2023-12-04T11:01:40;6.20;99.90
21039;DHT22;10678;51.002;4.786;2023-12-04T11:04:16;6.20;99.90
21039;DHT22;10678;51.002;4.786;2023-12-04T11:06:44;6.30;99.90
21039;DHT22;10678;51.002;4.786;2023-12-04T11:09:15;6.60;99.90
21039;DHT22;10678;51.002;4.786;2023-12-04T11:11:44;6.60;99.90
21039;DHT22;10678;51.002;4.786;2023-12-04T11:14:12;6.50;99.90
21039;DHT22;10678;51.002;4.786;2023-12-04T11:16:47;6.40;99.90
21039;DHT22;10678;51.002;4.786;2023-12-04T11:19:29;6.40;99.90
21039;DHT22;10678;51.002;4.786;2023-12-04T11:21:58;6.10;99.90
21039;DHT22;10678;51.002;4.786;2023-12-04T11:24:25;6.10;99.90
21039;DHT22;10678;51.002;4.786;2023-12-04T11:26:52;6.20;99.90
21039;DHT22;10678;51.002;4.786;2023-12-04T11:29:18;6.20;99.90
21039;DHT22;10678;51.002;4.786;2023-12-04T11:31:44;6.10;99.90
21039;DHT22;10678;51.002;4.786;2023-12-04T11:34:12;6.10;99.90
21039;DHT22;10678;51.002;4.786;2023-12-04T11:36:39;6.10;99.90
21039;DHT22;10678;51.002;4.786;2023-12-04T11:39:09;6.10;99.90
21039;DHT22;10678;51.002;4.786;2023-12-04T11:41:36;6.00;99.90
21039;DHT22;10678;51.002;4.786;2023-12-04T11:44:02;6.00;99.90
21039;DHT22;10678;51.002;4.786;2023-12-04T11:46:29;5.80;99.90
21039;DHT22;10678;51.002;4.786;2023-12-04T11:51:51;6.00;99.90
21039;DHT22;10678;51.002;4.786;2023-12-04T11:54:21;6.20;99.90
21039;DHT22;10678;51.002;4.786;2023-12-04T11:56:59;6.00;99.90
21039;DHT22;10678;51.002;4.786;2023-12-04T11:59:25;6.10;99.90
21039;DHT22;10678;51.002;4.786;2023-12-04T12:01:54;5.80;99.90
21039;DHT22;10678;51.002;4.786;2023-12-04T12:04:21;5.70;99.90
21039;DHT22;10678;51.002;4.786;2023-12-04T12:06:47;5.60;99.90
21039;DHT22;10678;51.002;4.786;2023-12-04T12:09:13;5.60;99.90
21039;DHT22;10678;51.002;4.786;2023-12-04T12:11:39;5.80;99.90
21039;DHT22;10678;51.002;4.786;2023-12-04T12:14:05;5.80;99.90
21039;DHT22;10678;51.002;4.786;2023-12-04T12:16:31;5.70;99.90
21039;DHT22;10678;51.002;4.786;2023-12-04T12:18:57;5.70;99.90
21039;DHT22;10678;51.002;4.786;2023-12-04T12:21:23;5.70;99.90
21039;DHT22;10678;51.002;4.786;2023-12-04T12:23:50;5.60;99.90
21039;DHT22;10678;51.002;4.786;2023-12-04T12:26:16;5.80;99.90
21039;DHT22;10678;51.002;4.786;2023-12-04T12:28:41;6.00;99.90
21039;DHT22;10678;51.002;4.786;2023-12-04T12:31:07;5.80;99.90
21039;DHT22;10678;51.002;4.786;2023-12-04T12:33:33;5.60;99.90
21039;DHT22;10678;51.002;4.786;2023-12-04T12:36:00;5.60;99.90
21039;DHT22;10678;51.002;4.786;2023-12-04T12:38:26;5.60;99.90
21039;DHT22;10678;51.002;4.786;2023-12-04T12:40:52;5.60;99.90
21039;DHT22;10678;51.002;4.786;2023-12-04T12:43:20;5.50;99.90
21039;DHT22;10678;51.002;4.786;2023-12-04T12:45:47;5.70;99.90
21039;DHT22;10678;51.002;4.786;2023-12-04T12:48:16;5.70;99.90
21039;DHT22;10678;51.002;4.786;2023-12-04T12:50:42;5.70;99.90
21039;DHT22;10678;51.002;4.786;2023-12-04T12:53:10;5.60;99.90
21039;DHT22;10678;51.002;4.786;2023-12-04T12:55:43;5.50;99.90
21039;DHT22;10678;51.002;4.786;2023-12-04T12:58:10;5.50;99.90
21039;DHT22;10678;51.002;4.786;2023-12-04T13:00:36;5.50;99.90
21039;DHT22;10678;51.002;4.786;2023-12-04T13:03:02;5.50;99.90
21039;DHT22;10678;51.002;4.786;2023-12-04T13:05:28;5.50;99.90
21039;DHT22;10678;51.002;4.786;2023-12-04T13:07:54;5.40;99.90
21039;DHT22;10678;51.002;4.786;2023-12-04T13:10:21;5.60;99.90
21039;DHT22;10678;51.002;4.786;2023-12-04T13:12:49;5.50;99.90
21039;DHT22;10678;51.002;4.786;2023-12-04T13:15:18;5.60;99.90
21039;DHT22;10678;51.002;4.786;2023-12-04T13:17:43;5.60;99.90
21039;DHT22;10678;51.002;4.786;2023-12-04T13:20:09;5.80;99.90
21039;DHT22;10678;51.002;4.786;2023-12-04T13:22:38;5.70;99.90
21039;DHT22;10678;51.002;4.786;2023-12-04T13:25:05;5.70;99.90
21039;DHT22;10678;51.002;4.786;2023-12-04T13:27:33;5.60;99.90
21039;DHT22;10678;51.002;4.786;2023-12-04T13:29:58;5.50;99.90
21039;DHT22;10678;51.002;4.786;2023-12-04T13:32:24;5.60;99.90
21039;DHT22;10678;51.002;4.786;2023-12-04T13:34:50;5.50;99.90
21039;DHT22;10678;51.002;4.786;2023-12-04T13:37:16;5.60;99.90
21039;DHT22;10678;51.002;4.786;2023-12-04T13:39:41;5.60;99.90
21039;DHT22;10678;51.002;4.786;2023-12-04T13:42:14;5.60;99.90
21039;DHT22;10678;51.002;4.786;2023-12-04T13:44:59;5.60;99.90
21039;DHT22;10678;51.002;4.786;2023-12-04T13:47:25;5.70;99.90
21039;DHT22;10678;51.002;4.786;2023-12-04T13:49:51;5.80;99.90
21039;DHT22;10678;51.002;4.786;2023-12-04T13:52:16;5.60;99.90
21039;DHT22;10678;51.002;4.786;2023-12-04T13:54:46;5.50;99.90
21039;DHT22;10678;51.002;4.786;2023-12-04T13:57:14;5.50;99.90
21039;DHT22;10678;51.002;4.786;2023-12-04T14:00:07;5.50;99.90
21039;DHT22;10678;51.002;4.786;2023-12-04T14:02:32;5.40;99.90
21039;DHT22;10678;51.002;4.786;2023-12-04T14:05:01;5.50;99.90
21039;DHT22;10678;51.002;4.786;2023-12-04T14:07:26;5.60;99.90
21039;DHT22;10678;51.002;4.786;2023-12-04T14:09:52;5.60;99.90
21039;DHT22;10678;51.002;4.786;2023-12-04T14:12:18;5.50;99.90
21039;DHT22;10678;51.002;4.786;2023-12-04T14:14:44;5.40;99.90
21039;DHT22;10678;51.002;4.786;2023-12-04T14:17:09;5.40;99.90
21039;DHT22;10678;51.002;4.786;2023-12-04T14:19:37;5.40;99.90
21039;DHT22;10678;51.002;4.786;2023-12-04T14:22:05;5.50;99.90
21039;DHT22;10678;51.002;4.786;2023-12-04T14:24:30;5.40;99.90
21039;DHT22;10678;51.002;4.786;2023-12-04T14:26:56;5.40;99.90
21039;DHT22;10678;51.002;4.786;2023-12-04T14:29:21;5.50;99.90
21039;DHT22;10678;51.002;4.786;2023-12-04T14:31:47;5.50;99.90
21039;DHT22;10678;51.002;4.786;2023-12-04T14:34:13;5.60;99.90
21039;DHT22;10678;51.002;4.786;2023-12-04T14:36:38;5.50;99.90
21039;DHT22;10678;51.002;4.786;2023-12-04T14:39:06;5.50;99.90
21039;DHT22;10678;51.002;4.786;2023-12-04T14:41:32;5.50;99.90
21039;DHT22;10678;51.002;4.786;2023-12-04T14:43:57;5.40;99.90
21039;DHT22;10678;51.002;4.786;2023-12-04T14:46:23;5.40;99.90
21039;DHT22;10678;51.002;4.786;2023-12-04T14:48:49;5.30;99.90
21039;DHT22;10678;51.002;4.786;2023-12-04T14:51:15;5.40;99.90
21039;DHT22;10678;51.002;4.786;2023-12-04T14:53:41;5.50;99.90
21039;DHT22;10678;51.002;4.786;2023-12-04T14:56:25;5.40;99.90
21039;DHT22;10678;51.002;4.786;2023-12-04T14:59:03;5.50;99.90
21039;DHT22;10678;51.002;4.786;2023-12-04T15:01:31;5.60;99.90
21039;DHT22;10678;51.002;4.786;2023-12-04T15:03:57;5.70;99.90
21039;DHT22;10678;51.002;4.786;2023-12-04T15:06:41;5.70;99.90
21039;DHT22;10678;51.002;4.786;2023-12-04T15:09:29;5.60;99.90
21039;DHT22;10678;51.002;4.786;2023-12-04T15:12:16;5.60;99.90
21039;DHT22;10678;51.002;4.786;2023-12-04T15:15:01;5.40;99.90
21039;DHT22;10678;51.002;4.786;2023-12-04T15:17:36;5.60;99.90
21039;DHT22;10678;51.002;4.786;2023-12-04T15:20:17;5.50;99.90
21039;DHT22;10678;51.002;4.786;2023-12-04T15:22:51;5.40;99.90
21039;DHT22;10678;51.002;4.786;2023-12-04T15:25:17;5.40;99.90
21039;DHT22;10678;51.002;4.786;2023-12-04T15:27:44;5.50;99.90
21039;DHT22;10678;51.002;4.786;2023-12-04T15:30:10;5.50;99.90
21039;DHT22;10678;51.002;4.786;2023-12-04T15:32:38;5.40;99.90
21039;DHT22;10678;51.002;4.786;2023-12-04T15:35:05;5.30;99.90
21039;DHT22;10678;51.002;4.786;2023-12-04T15:37:31;5.30;99.90
21039;DHT22;10678;51.002;4.786;2023-12-04T15:39:57;5.40;99.90
21039;DHT22;10678;51.002;4.786;2023-12-04T15:42:24;5.40;99.90
21039;DHT22;10678;51.002;4.786;2023-12-04T15:44:50;5.50;99.90
21039;DHT22;10678;51.002;4.786;2023-12-04T15:47:16;5.60;99.90